Time;durP1;ratioP1;P1;durP2;ratioP2;P2;SDS_P1;SDS_P2;PMS_P1;PMS_P2;Temp;Humidity;BMP_temperature;BMP_pressure;BME280_temperature;BME280_humidity;BME280_pressure;Samples;Min_cycle;Max_cycle;Signal;HPM_P1;HPM_P2
2021/07/24 00:01:16;;;;;;;43.85;17.70;;;11.90;96.30;;;;;;5103455;27;20029;-69
2021/07/24 00:03:42;;;;;;;43.03;18.80;;;11.90;96.30;;;;;;5093229;28;20041;-69
2021/07/24 00:06:08;;;;;;;43.42;18.58;;;11.90;96.40;;;;;;5107401;27;20164;-69
2021/07/24 00:08:34;;;;;;;45.13;19.92;;;11.90;96.60;;;;;;5108962;27;20107;-69
2021/07/24 00:11:07;;;;;;;55.35;20.92;;;12.00;96.90;;;;;;5095450;27;20795;-69
2021/07/24 00:13:34;;;;;;;40.33;17.60;;;11.90;96.90;;;;;;5094681;28;20020;-68
2021/07/24 00:16:00;;;;;;;37.33;17.35;;;11.80;96.80;;;;;;5102653;28;20486;-69
2021/07/24 00:18:26;;;;;;;36.90;16.92;;;11.80;96.80;;;;;;5094820;28;20160;-67
2021/07/24 00:20:51;;;;;;;33.35;14.40;;;11.80;96.70;;;;;;5100135;27;20215;-68
2021/07/24 00:23:17;;;;;;;36.00;15.27;;;11.70;96.60;;;;;;5106866;27;20032;-69
2021/07/24 00:25:43;;;;;;;39.35;17.23;;;11.70;96.70;;;;;;5089250;28;20127;-69
2021/07/24 00:28:09;;;;;;;38.78;15.30;;;11.70;96.70;;;;;;5098365;27;20114;-69
2021/07/24 00:30:38;;;;;;;39.38;16.52;;;11.70;96.60;;;;;;5094894;28;20019;-69
2021/07/24 00:33:04;;;;;;;39.50;16.33;;;11.70;96.70;;;;;;5092053;28;20043;-68
2021/07/24 00:35:30;;;;;;;32.40;15.20;;;11.70;96.70;;;;;;5094731;28;20024;-68
2021/07/24 00:37:55;;;;;;;35.88;16.92;;;11.70;96.70;;;;;;5098595;28;20425;-68
2021/07/24 00:40:24;;;;;;;36.20;15.60;;;11.70;96.70;;;;;;5086811;28;20119;-69
2021/07/24 00:42:51;;;;;;;46.85;17.48;;;11.60;96.80;;;;;;5095060;28;20066;-68
2021/07/24 00:45:20;;;;;;;44.78;18.17;;;11.70;97.00;;;;;;5090722;28;20096;-67
2021/07/24 00:47:50;;;;;;;42.50;16.58;;;11.60;96.90;;;;;;5101982;28;20054;-68
2021/07/24 00:50:16;;;;;;;38.25;16.35;;;11.60;97.00;;;;;;5113995;27;20028;-68
2021/07/24 00:52:43;;;;;;;40.53;17.23;;;11.60;97.10;;;;;;5104753;28;20370;-69
2021/07/24 00:55:12;;;;;;;38.83;16.33;;;11.60;97.00;;;;;;5091761;28;20054;-68
2021/07/24 00:57:40;;;;;;;40.63;16.17;;;11.60;97.10;;;;;;5094476;28;20412;-68
2021/07/24 01:00:07;;;;;;;42.15;17.23;;;11.60;97.00;;;;;;5092716;28;20027;-68
2021/07/24 01:02:33;;;;;;;47.58;18.48;;;11.60;97.10;;;;;;5102897;28;20078;-68
2021/07/24 01:05:01;;;;;;;39.20;17.10;;;11.60;97.10;;;;;;5100438;28;20028;-68
2021/07/24 01:07:27;;;;;;;44.72;18.30;;;11.60;97.10;;;;;;5097901;28;20493;-68
2021/07/24 01:09:53;;;;;;;48.10;17.98;;;11.60;97.10;;;;;;5096379;28;20184;-68
2021/07/24 01:12:18;;;;;;;49.70;18.50;;;11.60;97.20;;;;;;5098086;28;20107;-68
2021/07/24 01:14:44;;;;;;;43.58;18.15;;;11.60;97.20;;;;;;5088144;28;20368;-68
2021/07/24 01:17:10;;;;;;;40.83;16.88;;;11.50;97.20;;;;;;5092731;28;20080;-68
2021/07/24 01:19:36;;;;;;;44.45;17.75;;;11.50;97.10;;;;;;5099136;28;20450;-68
2021/07/24 01:22:01;;;;;;;43.63;17.40;;;11.50;97.10;;;;;;5099345;28;20062;-68
2021/07/24 01:24:27;;;;;;;42.70;17.55;;;11.50;97.10;;;;;;5088539;28;20027;-68
2021/07/24 01:26:52;;;;;;;43.72;16.60;;;11.40;97.20;;;;;;5098562;28;20034;-68
2021/07/24 01:29:20;;;;;;;40.50;17.50;;;11.40;97.20;;;;;;5092106;28;20449;-68
2021/07/24 01:31:46;;;;;;;39.75;16.67;;;11.40;97.30;;;;;;5101846;28;20455;-68
2021/07/24 01:34:11;;;;;;;45.58;17.02;;;11.40;97.30;;;;;;5094846;28;20039;-68
2021/07/24 01:36:38;;;;;;;44.15;17.75;;;11.50;97.30;;;;;;5104473;27;20016;-69
2021/07/24 01:39:04;;;;;;;51.58;19.10;;;11.40;97.30;;;;;;5096007;28;20142;-68
2021/07/24 01:41:30;;;;;;;54.53;19.38;;;11.40;97.40;;;;;;5083931;28;20028;-68
2021/07/24 01:43:55;;;;;;;50.88;20.88;;;11.40;97.50;;;;;;5094912;28;20047;-68
2021/07/24 01:46:21;;;;;;;101.68;38.10;;;11.40;97.50;;;;;;5094020;27;20111;-67
2021/07/24 01:54:41;;;;;;;91.35;33.28;;;11.30;97.60;;;;;;5087158;28;20106;-68
2021/07/24 01:57:09;;;;;;;77.97;32.30;;;11.40;97.60;;;;;;5096425;28;20008;-68
2021/07/24 01:59:41;;;;;;;90.35;33.55;;;11.30;97.60;;;;;;5098065;28;20486;-69
2021/07/24 02:02:13;;;;;;;84.03;34.20;;;11.40;97.70;;;;;;5092464;27;20490;-68
2021/07/24 02:04:48;;;;;;;97.00;36.58;;;11.40;97.80;;;;;;5091640;28;20180;-68
2021/07/24 02:07:16;;;;;;;80.85;33.30;;;11.30;97.80;;;;;;5099850;28;20016;-69
2021/07/24 02:09:42;;;;;;;79.10;31.65;;;11.40;97.90;;;;;;5090654;28;20623;-68
2021/07/24 02:12:09;;;;;;;83.68;32.22;;;11.40;97.90;;;;;;5101864;28;20028;-69
2021/07/24 02:14:35;;;;;;;79.43;29.95;;;11.30;97.80;;;;;;5093192;28;20087;-68
2021/07/24 02:17:01;;;;;;;80.07;31.00;;;11.40;98.00;;;;;;5100952;27;20135;-68
2021/07/24 02:19:34;;;;;;;75.07;30.92;;;11.40;98.10;;;;;;5094005;28;20437;-68
2021/07/24 02:21:59;;;;;;;76.38;30.20;;;11.40;98.10;;;;;;5106029;28;20038;-68
2021/07/24 02:24:25;;;;;;;72.55;28.95;;;11.50;98.20;;;;;;5094149;27;20024;-68
2021/07/24 02:26:51;;;;;;;69.63;28.92;;;11.40;98.20;;;;;;5098472;28;20055;-69
2021/07/24 02:29:17;;;;;;;71.20;27.75;;;11.40;98.20;;;;;;5094875;28;20111;-68
2021/07/24 02:31:42;;;;;;;67.93;27.23;;;11.40;98.20;;;;;;5101117;28;20157;-68
2021/07/24 02:34:08;;;;;;;70.13;28.25;;;11.30;98.20;;;;;;5092436;28;20039;-67
2021/07/24 02:36:33;;;;;;;65.15;27.30;;;11.30;98.10;;;;;;5105134;28;20097;-69
2021/07/24 02:38:59;;;;;;;70.30;26.67;;;11.30;98.20;;;;;;5092731;28;20036;-69
2021/07/24 02:41:25;;;;;;;59.67;25.00;;;11.30;98.20;;;;;;5094069;28;20032;-68
2021/07/24 02:43:50;;;;;;;64.93;26.05;;;11.30;98.10;;;;;;5095818;28;20358;-68
2021/07/24 02:46:19;;;;;;;62.03;24.50;;;11.30;98.20;;;;;;5100662;28;20028;-69
2021/07/24 02:48:46;;;;;;;57.15;23.95;;;11.30;98.20;;;;;;5102996;28;20399;-68
2021/07/24 02:51:13;;;;;;;57.90;23.90;;;11.30;98.20;;;;;;5100498;28;20386;-68
2021/07/24 02:53:38;;;;;;;55.72;23.52;;;11.30;98.20;;;;;;5099684;27;20470;-69
2021/07/24 02:56:04;;;;;;;61.42;22.98;;;11.30;98.20;;;;;;5097009;28;20293;-69
2021/07/24 02:58:30;;;;;;;59.08;23.33;;;11.30;98.40;;;;;;5093740;27;20035;-68
2021/07/24 03:00:55;;;;;;;65.93;25.45;;;11.30;98.30;;;;;;5098839;27;20039;-69
2021/07/24 03:03:21;;;;;;;60.28;23.60;;;11.40;98.40;;;;;;5097849;27;20078;-67
2021/07/24 03:05:48;;;;;;;56.63;22.63;;;11.40;98.50;;;;;;5100941;28;20156;-69
2021/07/24 03:08:14;;;;;;;63.55;23.35;;;11.40;98.50;;;;;;5100196;28;20034;-68
2021/07/24 03:10:39;;;;;;;60.95;23.38;;;11.40;98.50;;;;;;5088741;28;20047;-69
2021/07/24 03:13:05;;;;;;;65.32;23.55;;;11.40;98.50;;;;;;5094448;28;20435;-69
2021/07/24 03:15:31;;;;;;;62.25;22.13;;;11.40;98.60;;;;;;5094739;28;20614;-68
2021/07/24 03:17:56;;;;;;;57.95;22.88;;;11.50;98.70;;;;;;5102842;28;20035;-69
2021/07/24 03:20:22;;;;;;;56.47;22.60;;;11.50;98.80;;;;;;5100174;28;20036;-68
2021/07/24 03:22:47;;;;;;;59.65;21.38;;;11.50;98.70;;;;;;5102060;28;20040;-69
2021/07/24 03:25:13;;;;;;;58.42;22.42;;;11.60;98.80;;;;;;5095422;28;20020;-69
2021/07/24 03:27:38;;;;;;;56.97;21.83;;;11.50;98.70;;;;;;5092714;28;20203;-69
2021/07/24 03:30:05;;;;;;;65.05;22.98;;;11.60;98.80;;;;;;5096371;28;20028;-69
2021/07/24 03:32:31;;;;;;;55.97;22.50;;;11.60;98.80;;;;;;5100697;28;20031;-69
2021/07/24 03:34:56;;;;;;;65.57;22.77;;;11.60;98.80;;;;;;5106967;27;20483;-69
2021/07/24 03:37:23;;;;;;;58.80;22.48;;;11.60;98.80;;;;;;5095139;28;20066;-68
2021/07/24 03:39:49;;;;;;;64.38;22.63;;;11.60;98.80;;;;;;5096110;28;20038;-69
2021/07/24 03:42:14;;;;;;;61.65;21.90;;;11.60;98.90;;;;;;5101648;28;20110;-69
2021/07/24 03:44:40;;;;;;;60.78;21.27;;;11.70;98.90;;;;;;5090954;27;20036;-69
2021/07/24 03:47:06;;;;;;;56.55;21.40;;;11.60;98.80;;;;;;5092004;28;20454;-69
2021/07/24 03:49:32;;;;;;;59.60;22.60;;;11.80;99.00;;;;;;5082332;28;20127;-69
2021/07/24 03:51:57;;;;;;;72.47;23.58;;;11.80;99.00;;;;;;5091651;28;20123;-69
2021/07/24 03:54:23;;;;;;;58.15;22.02;;;11.80;98.90;;;;;;5090184;28;20481;-67
2021/07/24 03:56:48;;;;;;;60.70;22.77;;;11.80;98.90;;;;;;5097826;28;20047;-69
2021/07/24 03:59:14;;;;;;;66.43;23.05;;;11.80;98.90;;;;;;5094641;27;20175;-69
2021/07/24 04:01:42;;;;;;;73.35;24.95;;;11.80;98.80;;;;;;5092646;28;20431;-69
2021/07/24 04:04:08;;;;;;;59.40;22.38;;;11.90;99.10;;;;;;5092763;28;20323;-69
2021/07/24 04:06:34;;;;;;;62.65;22.10;;;12.00;99.10;;;;;;5095433;28;20028;-70
2021/07/24 04:09:01;;;;;;;63.47;23.25;;;12.00;99.00;;;;;;5100945;27;20038;-69
2021/07/24 04:11:28;;;;;;;69.07;22.65;;;12.10;99.10;;;;;;5117092;27;20067;-69
2021/07/24 04:13:54;;;;;;;66.35;24.33;;;12.10;99.00;;;;;;5095088;28;20397;-69
2021/07/24 04:16:20;;;;;;;67.97;25.02;;;12.10;99.10;;;;;;5095022;28;20219;-68
2021/07/24 04:18:45;;;;;;;63.28;25.30;;;12.30;99.20;;;;;;5091179;28;20093;-69
2021/07/24 04:21:13;;;;;;;56.53;23.10;;;12.30;99.10;;;;;;5106680;27;20135;-62
2021/07/24 04:23:39;;;;;;;59.83;22.92;;;12.40;99.00;;;;;;5092555;28;20539;-63
2021/07/24 04:26:04;;;;;;;65.25;24.60;;;12.40;99.00;;;;;;5098657;27;20146;-62
2021/07/24 04:28:30;;;;;;;68.10;24.73;;;12.40;99.00;;;;;;5082763;28;20036;-60
2021/07/24 04:30:55;;;;;;;62.58;23.65;;;12.50;99.10;;;;;;5097999;28;20115;-62
2021/07/24 04:33:21;;;;;;;57.22;23.70;;;12.50;99.00;;;;;;5091125;28;20035;-62
2021/07/24 04:35:48;;;;;;;62.85;24.20;;;12.50;99.00;;;;;;5100582;27;20122;-62
2021/07/24 04:38:17;;;;;;;56.53;23.05;;;12.60;99.00;;;;;;5087788;28;20059;-63
2021/07/24 04:40:44;;;;;;;58.83;24.33;;;12.60;99.00;;;;;;5096239;28;20039;-61
2021/07/24 04:43:11;;;;;;;65.40;24.48;;;12.60;99.00;;;;;;5086506;28;20039;-62
2021/07/24 04:45:43;;;;;;;54.78;23.08;;;12.70;99.10;;;;;;5096057;28;20019;-62
2021/07/24 04:48:10;;;;;;;58.42;23.40;;;12.80;99.00;;;;;;5090197;28;20482;-63
2021/07/24 04:50:41;;;;;;;66.28;25.08;;;13.00;99.10;;;;;;5095198;28;20127;-62
2021/07/24 04:53:06;;;;;;;65.25;25.23;;;13.00;99.00;;;;;;5087006;28;20028;-62
2021/07/24 04:55:34;;;;;;;61.58;24.27;;;13.10;98.90;;;;;;5096274;28;20108;-62
2021/07/24 04:58:00;;;;;;;56.58;24.75;;;13.20;98.90;;;;;;5093720;28;20028;-63
2021/07/24 05:00:25;;;;;;;64.22;25.52;;;13.30;98.70;;;;;;5097200;27;20365;-62
2021/07/24 05:02:51;;;;;;;58.80;24.98;;;13.30;98.70;;;;;;5091410;28;20136;-63
2021/07/24 05:05:17;;;;;;;58.47;24.80;;;13.50;98.70;;;;;;5099770;28;20027;-63
2021/07/24 05:07:42;;;;;;;57.53;25.77;;;13.50;98.50;;;;;;5102869;28;20047;-62
2021/07/24 05:10:09;;;;;;;60.00;25.35;;;13.60;98.40;;;;;;5097011;28;20050;-61
2021/07/24 05:12:36;;;;;;;54.85;25.63;;;13.60;98.40;;;;;;5095726;28;20113;-62
2021/07/24 05:15:03;;;;;;;53.92;24.00;;;13.60;98.30;;;;;;5087893;28;20028;-62
2021/07/24 05:17:29;;;;;;;56.78;24.50;;;13.70;98.30;;;;;;5096973;28;20024;-62
2021/07/24 05:19:54;;;;;;;54.45;22.77;;;13.60;98.20;;;;;;5088645;28;20548;-63
2021/07/24 05:22:20;;;;;;;53.22;23.30;;;13.70;98.30;;;;;;5098316;28;20385;-63
2021/07/24 05:24:46;;;;;;;49.97;22.17;;;13.70;98.10;;;;;;5089824;28;20465;-62
2021/07/24 05:27:13;;;;;;;55.72;22.77;;;13.70;98.20;;;;;;5098136;28;20110;-61
2021/07/24 05:29:39;;;;;;;54.20;23.98;;;13.80;98.20;;;;;;5098624;28;20145;-63
2021/07/24 05:32:05;;;;;;;57.50;23.42;;;13.90;98.20;;;;;;5103828;27;20045;-63
2021/07/24 05:34:31;;;;;;;55.40;22.88;;;13.90;98.10;;;;;;5097211;28;20028;-63
2021/07/24 05:36:56;;;;;;;53.92;24.65;;;14.00;98.10;;;;;;5090446;28;20307;-64
2021/07/24 05:39:22;;;;;;;54.35;23.95;;;14.00;98.20;;;;;;5104383;28;20209;-63
2021/07/24 05:41:47;;;;;;;49.25;23.42;;;14.20;98.20;;;;;;5099991;28;20027;-64
2021/07/24 05:44:17;;;;;;;52.95;25.65;;;14.20;98.10;;;;;;5093492;28;20034;-63
2021/07/24 05:46:44;;;;;;;56.70;25.40;;;14.40;98.00;;;;;;5105925;28;20248;-63
2021/07/24 05:49:09;;;;;;;52.85;25.08;;;14.50;98.00;;;;;;5089882;28;20031;-63
2021/07/24 05:51:35;;;;;;;50.10;22.55;;;14.60;97.90;;;;;;5093893;28;20106;-63
2021/07/24 05:54:01;;;;;;;46.45;22.60;;;14.60;97.70;;;;;;5088861;28;20115;-63
2021/07/24 05:56:26;;;;;;;42.45;22.83;;;14.60;97.70;;;;;;5102007;28;20106;-64
2021/07/24 05:58:52;;;;;;;40.20;22.15;;;14.80;97.70;;;;;;5087714;28;20032;-64
2021/07/24 06:01:18;;;;;;;41.65;22.80;;;14.90;97.50;;;;;;5088949;28;20057;-62
2021/07/24 06:03:43;;;;;;;41.25;21.80;;;15.00;97.40;;;;;;5090722;28;20047;-65
2021/07/24 06:06:09;;;;;;;37.60;20.02;;;15.20;97.10;;;;;;5092521;28;20508;-65
2021/07/24 06:08:34;;;;;;;36.58;20.73;;;15.30;96.70;;;;;;5091547;28;20374;-65
2021/07/24 06:11:01;;;;;;;33.50;19.95;;;15.40;96.70;;;;;;5096336;28;20047;-66
2021/07/24 06:13:27;;;;;;;38.95;21.75;;;15.50;96.60;;;;;;5094114;28;20085;-64
2021/07/24 06:15:53;;;;;;;38.38;19.83;;;15.70;96.70;;;;;;5104837;27;20462;-65
2021/07/24 06:18:20;;;;;;;36.42;19.83;;;15.90;96.50;;;;;;5086776;28;21688;-65
2021/07/24 06:20:47;;;;;;;29.23;17.40;;;16.00;96.10;;;;;;5095260;27;20557;-65
2021/07/24 06:23:15;;;;;;;25.58;16.58;;;16.10;95.20;;;;;;5094890;28;20051;-65
2021/07/24 06:25:41;;;;;;;25.42;16.13;;;16.30;95.40;;;;;;5101988;28;20108;-66
2021/07/24 06:28:07;;;;;;;28.90;15.45;;;16.40;95.20;;;;;;5091562;28;20499;-66
2021/07/24 06:30:34;;;;;;;26.98;15.13;;;16.50;94.90;;;;;;5099256;27;20110;-65
2021/07/24 06:33:00;;;;;;;24.77;14.50;;;16.60;94.60;;;;;;5100755;27;20016;-65
2021/07/24 06:35:25;;;;;;;23.00;12.52;;;16.70;94.10;;;;;;5103221;27;20113;-65
2021/07/24 06:37:52;;;;;;;21.50;11.63;;;16.90;93.40;;;;;;5092378;27;20062;-65
2021/07/24 06:40:18;;;;;;;18.63;10.60;;;17.00;92.80;;;;;;5109049;27;20451;-66
2021/07/24 06:42:43;;;;;;;18.05;10.55;;;17.10;92.40;;;;;;5101014;27;20043;-65
2021/07/24 06:45:09;;;;;;;16.23;9.65;;;17.20;92.20;;;;;;5098871;27;20027;-66
2021/07/24 06:47:35;;;;;;;18.27;9.82;;;17.50;92.70;;;;;;5094470;28;20398;-65
2021/07/24 06:50:00;;;;;;;12.32;8.80;;;17.50;92.30;;;;;;5105507;27;20063;-66
2021/07/24 06:52:26;;;;;;;11.15;7.40;;;17.60;90.80;;;;;;5091447;27;20383;-66
2021/07/24 06:54:52;;;;;;;16.83;7.70;;;17.80;89.90;;;;;;5090926;27;20070;-66
2021/07/24 06:57:17;;;;;;;15.55;8.07;;;17.90;88.90;;;;;;5092189;27;20024;-65
2021/07/24 06:59:43;;;;;;;15.27;7.68;;;18.00;89.70;;;;;;5109655;27;22102;-65
2021/07/24 07:02:10;;;;;;;14.43;6.50;;;18.10;89.40;;;;;;5089559;27;20128;-66
2021/07/24 07:04:36;;;;;;;13.25;7.53;;;18.20;88.80;;;;;;5095588;27;20111;-66
2021/07/24 07:07:01;;;;;;;12.50;6.68;;;18.40;88.60;;;;;;5101956;28;20111;-66
2021/07/24 07:09:27;;;;;;;11.27;6.53;;;18.50;88.50;;;;;;5092103;27;20039;-66
2021/07/24 07:11:57;;;;;;;18.75;6.40;;;18.60;87.60;;;;;;5107028;27;20023;-65
2021/07/24 07:14:23;;;;;;;13.02;5.78;;;18.70;85.20;;;;;;5095820;27;20027;-65
2021/07/24 07:16:49;;;;;;;11.45;6.18;;;18.80;85.50;;;;;;5094135;27;20027;-64
2021/07/24 07:19:14;;;;;;;11.00;6.85;;;19.00;86.50;;;;;;5102828;27;20202;-65
2021/07/24 07:21:40;;;;;;;13.10;6.43;;;19.10;87.60;;;;;;5101283;27;20166;-65
2021/07/24 07:24:06;;;;;;;11.00;5.53;;;19.20;84.30;;;;;;5099027;27;20031;-66
2021/07/24 07:26:33;;;;;;;11.85;5.82;;;19.40;83.80;;;;;;5115433;27;20031;-66
2021/07/24 07:29:03;;;;;;;11.70;5.90;;;19.50;85.90;;;;;;5084703;28;20085;-65
2021/07/24 07:31:29;;;;;;;10.68;5.65;;;19.60;84.80;;;;;;5102259;27;20015;-65
2021/07/24 07:33:55;;;;;;;8.63;5.05;;;19.70;84.20;;;;;;5112226;27;20015;-66
2021/07/24 07:36:21;;;;;;;9.90;5.05;;;19.80;83.00;;;;;;5112958;27;20069;-68
2021/07/24 07:38:46;;;;;;;11.30;5.13;;;19.90;83.10;;;;;;5089658;27;20040;-67
2021/07/24 07:41:12;;;;;;;16.45;5.28;;;20.00;81.20;;;;;;5090244;28;20035;-67
2021/07/24 07:43:38;;;;;;;7.10;4.28;;;20.20;81.70;;;;;;5089647;27;20028;-66
2021/07/24 07:46:04;;;;;;;8.82;4.30;;;20.30;77.80;;;;;;5093539;27;20032;-67
2021/07/24 07:48:36;;;;;;;8.55;4.32;;;20.40;79.00;;;;;;5098451;28;20457;-66
2021/07/24 07:51:03;;;;;;;10.00;4.60;;;20.50;76.80;;;;;;5086728;28;20020;-66
2021/07/24 07:53:28;;;;;;;10.73;4.57;;;20.70;77.90;;;;;;5092256;28;20020;-66
2021/07/24 07:55:54;;;;;;;8.98;4.18;;;20.70;78.00;;;;;;5095741;28;20034;-66
2021/07/24 07:58:20;;;;;;;9.75;4.22;;;20.70;76.60;;;;;;5095001;27;20024;-66
2021/07/24 08:00:46;;;;;;;9.55;4.32;;;20.90;76.80;;;;;;5093191;27;20427;-68
2021/07/24 08:03:11;;;;;;;7.53;4.00;;;21.00;78.60;;;;;;5094752;27;20069;-66
2021/07/24 08:05:37;;;;;;;7.55;3.72;;;21.30;76.50;;;;;;5094991;27;20032;-68
2021/07/24 08:08:03;;;;;;;8.30;4.25;;;21.10;74.10;;;;;;5096109;27;20068;-67
2021/07/24 08:10:28;;;;;;;8.30;4.22;;;21.30;75.30;;;;;;5095220;27;20019;-68
2021/07/24 08:12:54;;;;;;;9.80;4.13;;;21.50;74.30;;;;;;5101948;27;20121;-68
2021/07/24 08:15:20;;;;;;;8.23;3.78;;;21.30;72.70;;;;;;5093879;28;20581;-68
2021/07/24 08:17:45;;;;;;;6.20;3.60;;;21.40;69.60;;;;;;5094305;28;20036;-68
2021/07/24 08:20:11;;;;;;;7.90;3.58;;;21.50;72.80;;;;;;5086070;28;20035;-67
2021/07/24 08:22:37;;;;;;;5.53;3.92;;;21.70;71.60;;;;;;5088935;28;20625;-68
2021/07/24 08:25:05;;;;;;;5.95;3.30;;;21.60;69.20;;;;;;5094978;28;20024;-68
2021/07/24 08:27:34;;;;;;;6.28;4.00;;;21.70;69.90;;;;;;5096882;27;20027;-68
2021/07/24 08:30:00;;;;;;;8.95;3.53;;;21.90;72.20;;;;;;5091641;28;20519;-68
2021/07/24 08:32:26;;;;;;;11.00;3.65;;;22.00;71.60;;;;;;5087517;28;20032;-68
2021/07/24 08:34:52;;;;;;;9.43;3.60;;;22.40;70.00;;;;;;5103031;27;20023;-70
2021/07/24 08:37:19;;;;;;;7.38;3.80;;;22.50;69.00;;;;;;5095877;27;20048;-69
2021/07/24 08:39:46;;;;;;;8.27;3.53;;;22.50;67.70;;;;;;5091252;28;20049;-69
2021/07/24 08:42:39;;;;;;;9.73;3.88;;;22.50;65.80;;;;;;5086681;28;20351;-69
2021/07/24 08:45:06;;;;;;;5.97;2.95;;;22.60;66.70;;;;;;5105223;27;20031;-69
2021/07/24 08:47:32;;;;;;;7.18;3.72;;;22.80;67.60;;;;;;5121594;27;20023;-70
2021/07/24 08:50:03;;;;;;;6.97;3.50;;;22.80;65.30;;;;;;5091532;28;20028;-69
2021/07/24 08:52:30;;;;;;;6.18;3.30;;;22.90;65.00;;;;;;5097948;28;20024;-69
2021/07/24 08:54:57;;;;;;;5.40;3.67;;;23.00;67.50;;;;;;5090819;27;20039;-69
2021/07/24 08:57:26;;;;;;;7.43;3.22;;;23.10;65.60;;;;;;5108461;27;20333;-69
2021/07/24 08:59:54;;;;;;;7.32;3.17;;;23.00;66.00;;;;;;5091647;27;20079;-69
2021/07/24 09:02:28;;;;;;;6.85;3.50;;;23.00;62.40;;;;;;5097456;28;20374;-69
2021/07/24 09:04:57;;;;;;;6.88;3.20;;;23.10;62.00;;;;;;5096956;28;20048;-72
2021/07/24 09:07:27;;;;;;;8.00;2.92;;;23.10;60.90;;;;;;5091069;28;20119;-71
2021/07/24 09:09:55;;;;;;;8.65;3.58;;;23.50;59.10;;;;;;5088288;28;20020;-71
2021/07/24 09:12:22;;;;;;;9.55;3.85;;;23.50;63.70;;;;;;5095832;28;20032;-71
2021/07/24 09:14:47;;;;;;;5.25;3.03;;;23.50;60.80;;;;;;5100411;28;20042;-71
2021/07/24 09:17:18;;;;;;;6.10;3.28;;;23.60;58.80;;;;;;5094122;28;20024;-72
2021/07/24 09:19:44;;;;;;;9.57;3.58;;;23.50;60.90;;;;;;5093210;28;20130;-72
2021/07/24 09:22:32;;;;;;;5.13;3.10;;;23.50;58.20;;;;;;5094651;28;20040;-72
2021/07/24 09:25:07;;;;;;;6.07;3.50;;;24.00;60.90;;;;;;5091174;28;20506;-72
2021/07/24 09:27:37;;;;;;;6.05;3.53;;;23.90;58.60;;;;;;5089292;28;20328;-72
2021/07/24 09:30:08;;;;;;;6.95;3.20;;;24.00;56.50;;;;;;5087855;28;20455;-71
2021/07/24 09:32:34;;;;;;;6.22;3.60;;;24.20;58.60;;;;;;5086665;28;20069;-73
2021/07/24 09:35:00;;;;;;;6.32;2.85;;;24.30;56.40;;;;;;5094185;28;20035;-72
2021/07/24 09:37:32;;;;;;;5.30;2.92;;;24.50;55.80;;;;;;5091334;28;20319;-71
2021/07/24 09:40:17;;;;;;;8.25;3.72;;;24.30;56.80;;;;;;5091726;28;20572;-72
2021/07/24 09:42:43;;;;;;;6.32;3.15;;;24.50;57.10;;;;;;5100923;28;20031;-71
2021/07/24 09:45:09;;;;;;;5.80;3.00;;;24.50;54.30;;;;;;5099721;28;20466;-73
2021/07/24 09:47:35;;;;;;;5.40;3.05;;;24.40;58.30;;;;;;5090496;28;20109;-72
2021/07/24 09:50:11;;;;;;;7.43;3.28;;;24.70;56.00;;;;;;5099107;28;20059;-72
2021/07/24 09:52:45;;;;;;;6.97;3.17;;;24.80;58.10;;;;;;5097472;27;20031;-72
2021/07/24 09:55:25;;;;;;;8.70;2.97;;;24.60;54.50;;;;;;5119483;27;20035;-72
2021/07/24 09:57:52;;;;;;;6.55;2.85;;;25.10;56.30;;;;;;5092757;27;20027;-72
2021/07/24 10:00:34;;;;;;;7.90;3.28;;;25.30;57.40;;;;;;5111713;27;20019;-72
2021/07/24 10:03:03;;;;;;;5.80;2.88;;;25.40;54.90;;;;;;5094184;28;20031;-71
2021/07/24 10:05:41;;;;;;;7.65;3.22;;;25.40;57.70;;;;;;5101280;28;20024;-72
2021/07/24 10:08:11;;;;;;;7.63;3.13;;;25.50;57.20;;;;;;5106268;27;20089;-72
2021/07/24 10:10:39;;;;;;;6.13;3.25;;;25.50;54.10;;;;;;5116172;27;20019;-72
2021/07/24 10:13:08;;;;;;;13.82;3.83;;;25.90;55.50;;;;;;5102821;27;20047;-72
2021/07/24 10:15:43;;;;;;;6.83;3.00;;;25.50;53.90;;;;;;5092763;27;20040;-72
2021/07/24 10:18:10;;;;;;;4.93;3.45;;;25.80;56.50;;;;;;5100191;27;20027;-72
2021/07/24 10:20:41;;;;;;;7.00;3.20;;;26.10;54.60;;;;;;5101866;27;20331;-73
2021/07/24 10:23:08;;;;;;;5.72;3.47;;;26.00;53.80;;;;;;5098649;27;20505;-73
2021/07/24 10:25:46;;;;;;;5.85;2.90;;;26.30;54.20;;;;;;5096577;27;20024;-72
2021/07/24 10:28:14;;;;;;;6.18;3.50;;;26.40;51.70;;;;;;5109584;27;20036;-73
2021/07/24 10:30:41;;;;;;;5.78;3.55;;;26.50;55.00;;;;;;5094384;27;20032;-72
2021/07/24 10:33:08;;;;;;;7.30;3.42;;;26.40;52.40;;;;;;5093651;27;20024;-72
2021/07/24 10:35:41;;;;;;;8.68;3.72;;;26.40;51.60;;;;;;5099417;28;20051;-73
2021/07/24 10:38:30;;;;;;;5.35;3.10;;;26.50;53.50;;;;;;5098614;27;20112;-73
2021/07/24 10:41:21;;;;;;;10.50;3.70;;;26.80;51.30;;;;;;5099419;28;20070;-72
2021/07/24 10:43:59;;;;;;;7.07;3.70;;;26.90;51.50;;;;;;5086849;28;20023;-72
2021/07/24 10:46:40;;;;;;;7.03;3.60;;;26.80;51.00;;;;;;5103750;28;20023;-72
2021/07/24 10:49:06;;;;;;;4.72;3.00;;;26.60;54.30;;;;;;5112280;27;20446;-73
2021/07/24 10:51:58;;;;;;;6.43;3.33;;;26.80;53.00;;;;;;5113164;27;20027;-71
2021/07/24 10:54:25;;;;;;;5.70;3.60;;;27.50;51.80;;;;;;5097154;27;20024;-72
2021/07/24 10:56:51;;;;;;;6.00;3.08;;;27.50;51.20;;;;;;5109277;27;20072;-72
2021/07/24 10:59:19;;;;;;;7.30;3.45;;;27.40;50.40;;;;;;5102601;28;20037;-72
2021/07/24 11:02:01;;;;;;;6.65;3.92;;;27.60;49.70;;;;;;5106248;27;20036;-72
2021/07/24 11:04:38;;;;;;;5.20;3.25;;;27.80;49.30;;;;;;5105222;27;20092;-72
2021/07/24 11:07:15;;;;;;;6.97;3.75;;;28.10;49.80;;;;;;5111680;27;20032;-72
2021/07/24 11:09:45;;;;;;;7.10;3.38;;;28.50;51.90;;;;;;5098903;28;20042;-72
2021/07/24 11:12:15;;;;;;;6.05;3.90;;;28.30;49.10;;;;;;5092247;27;20024;-72
2021/07/24 11:14:50;;;;;;;6.35;3.42;;;29.00;50.10;;;;;;5098921;27;20075;-72
2021/07/24 11:17:19;;;;;;;8.25;3.78;;;28.70;46.80;;;;;;5086981;28;20027;-72
2021/07/24 11:20:08;;;;;;;6.35;3.53;;;28.80;45.90;;;;;;5107047;27;20185;-72
2021/07/24 11:22:37;;;;;;;6.28;3.60;;;28.90;46.60;;;;;;5097604;27;20060;-72
2021/07/24 11:25:03;;;;;;;7.80;3.33;;;28.80;47.90;;;;;;5106466;27;20019;-73
2021/07/24 11:27:33;;;;;;;7.55;3.58;;;29.20;46.20;;;;;;5111811;27;20031;-72
2021/07/24 11:30:05;;;;;;;5.30;3.85;;;28.70;48.20;;;;;;5109363;27;20570;-72
2021/07/24 11:32:32;;;;;;;7.07;3.80;;;29.20;46.80;;;;;;5113726;27;20039;-73
2021/07/24 11:34:59;;;;;;;7.28;3.70;;;29.20;45.90;;;;;;5102579;27;20076;-72
2021/07/24 11:37:45;;;;;;;8.02;3.90;;;29.00;46.50;;;;;;5099383;28;20140;-73
2021/07/24 11:40:19;;;;;;;6.47;3.70;;;29.40;46.50;;;;;;5102468;27;20073;-71
2021/07/24 11:42:58;;;;;;;6.28;4.20;;;29.30;47.00;;;;;;5096420;27;20588;-72
2021/07/24 11:45:23;;;;;;;6.97;3.95;;;29.10;44.60;;;;;;5098719;27;20107;-71
2021/07/24 11:48:04;;;;;;;5.68;3.90;;;29.40;48.20;;;;;;5095529;28;20117;-72
2021/07/24 11:50:30;;;;;;;7.88;4.22;;;30.00;46.60;;;;;;5099235;27;20085;-70
2021/07/24 11:52:56;;;;;;;7.93;4.63;;;29.50;43.70;;;;;;5096553;27;20035;-72
2021/07/24 11:55:29;;;;;;;6.32;4.13;;;29.80;43.30;;;;;;5088123;28;20024;-71
2021/07/24 11:58:06;;;;;;;9.07;4.47;;;30.60;44.10;;;;;;5101628;27;20024;-72
2021/07/24 12:00:37;;;;;;;8.40;4.60;;;30.30;43.30;;;;;;5092774;28;20032;-72
2021/07/24 12:03:19;;;;;;;6.90;4.20;;;30.40;44.10;;;;;;5096178;28;20477;-72
2021/07/24 12:06:02;;;;;;;6.60;4.15;;;30.60;43.30;;;;;;5115050;27;20418;-71
2021/07/24 12:08:30;;;;;;;7.53;4.60;;;30.50;43.60;;;;;;5109993;27;20050;-72
2021/07/24 12:10:57;;;;;;;6.00;4.28;;;30.20;42.80;;;;;;5110419;27;20343;-72
2021/07/24 12:13:28;;;;;;;5.93;3.90;;;31.00;43.90;;;;;;5104351;27;20096;-72
2021/07/24 12:16:01;;;;;;;8.57;5.00;;;31.10;43.80;;;;;;5091082;28;20024;-72
2021/07/24 12:18:28;;;;;;;6.65;4.18;;;31.10;42.80;;;;;;5036263;27;20516;-72
2021/07/24 12:21:08;;;;;;;7.88;4.93;;;30.50;41.80;;;;;;5076577;28;20497;-73
2021/07/24 12:23:34;;;;;;;;;;;31.30;43.90;;;;;;5076958;28;20074;-73
2021/07/24 12:26:14;;;;;;;8.48;4.80;;;31.50;43.40;;;;;;5081119;28;19916;-73
2021/07/24 12:28:42;;;;;;;7.78;4.80;;;31.90;42.60;;;;;;5074536;28;20032;-73
2021/07/24 12:31:25;;;;;;;7.30;4.38;;;31.30;41.30;;;;;;5078672;28;20112;-72
2021/07/24 12:33:56;;;;;;;6.55;4.40;;;31.90;43.40;;;;;;5073294;28;20194;-73
2021/07/24 12:36:22;;;;;;;7.00;4.70;;;32.10;40.50;;;;;;5076303;28;20043;-71
2021/07/24 12:38:52;;;;;;;8.25;4.15;;;32.20;40.50;;;;;;5080068;28;20036;-73
2021/07/24 12:41:27;;;;;;;;;;;32.60;39.60;;;;;;5072137;28;22223;-71
2021/07/24 12:44:09;;;;;;;12.88;4.90;;;33.00;41.60;;;;;;5078205;28;19908;-72
2021/07/24 12:46:37;;;;;;;11.75;5.22;;;33.10;39.20;;;;;;5078552;28;20110;-71